sensor_id;sensor_type;location;lat;lon;timestamp;temperature;humidity
4755;DHT22;2391;47.212;7.542;2024-03-02T00:00:05;9.10;96.80
4755;DHT22;2391;47.212;7.542;2024-03-02T00:02:33;9.20;96.60
4755;DHT22;2391;47.212;7.542;2024-03-02T00:04:59;9.20;96.50
4755;DHT22;2391;47.212;7.542;2024-03-02T00:07:25;9.10;96.60
4755;DHT22;2391;47.212;7.542;2024-03-02T00:09:53;9.00;96.60
4755;DHT22;2391;47.212;7.542;2024-03-02T00:12:19;8.90;96.50
4755;DHT22;2391;47.212;7.542;2024-03-02T00:14:46;8.90;96.50
4755;DHT22;2391;47.212;7.542;2024-03-02T00:17:17;8.90;96.50
4755;DHT22;2391;47.212;7.542;2024-03-02T00:19:41;8.90;96.50
4755;DHT22;2391;47.212;7.542;2024-03-02T00:22:07;8.80;96.50
4755;DHT22;2391;47.212;7.542;2024-03-02T00:24:34;8.70;96.60
4755;DHT22;2391;47.212;7.542;2024-03-02T00:27:03;8.60;96.60
4755;DHT22;2391;47.212;7.542;2024-03-02T00:29:29;8.60;96.60
4755;DHT22;2391;47.212;7.542;2024-03-02T00:31:55;8.50;96.90
4755;DHT22;2391;47.212;7.542;2024-03-02T00:34:22;8.50;96.60
4755;DHT22;2391;47.212;7.542;2024-03-02T00:36:48;8.50;96.60
4755;DHT22;2391;47.212;7.542;2024-03-02T00:39:17;8.50;96.50
4755;DHT22;2391;47.212;7.542;2024-03-02T00:41:43;8.50;96.40
4755;DHT22;2391;47.212;7.542;2024-03-02T00:44:14;8.50;96.60
4755;DHT22;2391;47.212;7.542;2024-03-02T00:46:42;8.40;96.50
4755;DHT22;2391;47.212;7.542;2024-03-02T00:49:23;8.40;96.50
4755;DHT22;2391;47.212;7.542;2024-03-02T00:51:51;8.30;96.40
4755;DHT22;2391;47.212;7.542;2024-03-02T00:54:25;8.30;96.50
4755;DHT22;2391;47.212;7.542;2024-03-02T00:56:53;8.30;96.50
4755;DHT22;2391;47.212;7.542;2024-03-02T00:59:22;8.30;96.40
4755;DHT22;2391;47.212;7.542;2024-03-02T01:01:48;8.20;96.50
4755;DHT22;2391;47.212;7.542;2024-03-02T01:04:15;8.20;96.50
4755;DHT22;2391;47.212;7.542;2024-03-02T01:06:44;8.20;96.50
4755;DHT22;2391;47.212;7.542;2024-03-02T01:09:11;8.10;96.60
4755;DHT22;2391;47.212;7.542;2024-03-02T01:11:38;8.10;96.60
4755;DHT22;2391;47.212;7.542;2024-03-02T01:14:04;8.10;96.60
4755;DHT22;2391;47.212;7.542;2024-03-02T01:16:30;8.20;96.50
4755;DHT22;2391;47.212;7.542;2024-03-02T01:18:55;8.10;96.50
4755;DHT22;2391;47.212;7.542;2024-03-02T01:21:21;8.10;96.40
4755;DHT22;2391;47.212;7.542;2024-03-02T01:23:47;8.10;96.40
4755;DHT22;2391;47.212;7.542;2024-03-02T01:26:13;8.10;96.50
4755;DHT22;2391;47.212;7.542;2024-03-02T01:28:40;8.10;96.40
4755;DHT22;2391;47.212;7.542;2024-03-02T01:31:05;8.10;96.50
4755;DHT22;2391;47.212;7.542;2024-03-02T01:33:31;8.10;96.50
4755;DHT22;2391;47.212;7.542;2024-03-02T01:35:57;8.10;96.50
4755;DHT22;2391;47.212;7.542;2024-03-02T01:38:23;8.00;96.60
4755;DHT22;2391;47.212;7.542;2024-03-02T01:40:48;8.00;96.60
4755;DHT22;2391;47.212;7.542;2024-03-02T01:43:14;8.00;96.60
4755;DHT22;2391;47.212;7.542;2024-03-02T01:45:40;8.00;96.70
4755;DHT22;2391;47.212;7.542;2024-03-02T01:48:06;7.90;96.50
4755;DHT22;2391;47.212;7.542;2024-03-02T01:50:33;7.80;96.60
4755;DHT22;2391;47.212;7.542;2024-03-02T01:53:00;7.80;96.70
4755;DHT22;2391;47.212;7.542;2024-03-02T01:55:26;7.80;96.70
4755;DHT22;2391;47.212;7.542;2024-03-02T01:57:54;7.80;96.70
4755;DHT22;2391;47.212;7.542;2024-03-02T02:00:20;7.90;96.60
4755;DHT22;2391;47.212;7.542;2024-03-02T02:02:47;7.80;96.70
4755;DHT22;2391;47.212;7.542;2024-03-02T02:05:14;7.80;96.90
4755;DHT22;2391;47.212;7.542;2024-03-02T02:07:41;7.80;97.00
4755;DHT22;2391;47.212;7.542;2024-03-02T02:10:08;7.70;97.10
4755;DHT22;2391;47.212;7.542;2024-03-02T02:12:36;7.80;97.10
4755;DHT22;2391;47.212;7.542;2024-03-02T02:15:03;7.80;97.10
4755;DHT22;2391;47.212;7.542;2024-03-02T02:17:29;7.80;96.80
4755;DHT22;2391;47.212;7.542;2024-03-02T02:19:55;7.90;96.60
4755;DHT22;2391;47.212;7.542;2024-03-02T02:22:21;7.80;96.50
4755;DHT22;2391;47.212;7.542;2024-03-02T02:24:46;7.80;96.50
4755;DHT22;2391;47.212;7.542;2024-03-02T02:27:12;7.70;96.50
4755;DHT22;2391;47.212;7.542;2024-03-02T02:29:41;7.60;96.40
4755;DHT22;2391;47.212;7.542;2024-03-02T02:32:07;7.60;96.40
4755;DHT22;2391;47.212;7.542;2024-03-02T02:34:33;7.50;96.40
4755;DHT22;2391;47.212;7.542;2024-03-02T02:36:59;7.50;96.50
4755;DHT22;2391;47.212;7.542;2024-03-02T02:39:25;7.50;96.50
4755;DHT22;2391;47.212;7.542;2024-03-02T02:41:55;7.40;96.70
4755;DHT22;2391;47.212;7.542;2024-03-02T02:44:18;7.40;96.50
4755;DHT22;2391;47.212;7.542;2024-03-02T02:46:47;7.40;96.40
4755;DHT22;2391;47.212;7.542;2024-03-02T02:49:13;7.40;96.30
4755;DHT22;2391;47.212;7.542;2024-03-02T02:51:39;7.50;96.30
4755;DHT22;2391;47.212;7.542;2024-03-02T02:54:04;7.50;96.10
4755;DHT22;2391;47.212;7.542;2024-03-02T02:56:30;7.60;96.10
4755;DHT22;2391;47.212;7.542;2024-03-02T02:58:56;7.60;96.00
4755;DHT22;2391;47.212;7.542;2024-03-02T03:01:22;7.60;96.00
4755;DHT22;2391;47.212;7.542;2024-03-02T03:03:48;7.60;96.00
4755;DHT22;2391;47.212;7.542;2024-03-02T03:06:13;7.40;96.00
4755;DHT22;2391;47.212;7.542;2024-03-02T03:08:39;7.30;96.20
4755;DHT22;2391;47.212;7.542;2024-03-02T03:11:05;7.20;96.30
4755;DHT22;2391;47.212;7.542;2024-03-02T03:13:34;7.10;96.30
4755;DHT22;2391;47.212;7.542;2024-03-02T03:16:00;7.00;96.50
4755;DHT22;2391;47.212;7.542;2024-03-02T03:18:26;6.90;96.60
4755;DHT22;2391;47.212;7.542;2024-03-02T03:20:51;6.90;96.90
4755;DHT22;2391;47.212;7.542;2024-03-02T03:23:17;6.90;96.80
4755;DHT22;2391;47.212;7.542;2024-03-02T03:25:43;6.90;96.70
4755;DHT22;2391;47.212;7.542;2024-03-02T03:28:09;7.00;96.70
4755;DHT22;2391;47.212;7.542;2024-03-02T03:30:38;7.10;96.70
4755;DHT22;2391;47.212;7.542;2024-03-02T03:33:05;7.20;96.80
4755;DHT22;2391;47.212;7.542;2024-03-02T03:35:32;7.30;97.20
4755;DHT22;2391;47.212;7.542;2024-03-02T03:37:58;7.40;97.10
4755;DHT22;2391;47.212;7.542;2024-03-02T03:40:24;7.50;97.00
4755;DHT22;2391;47.212;7.542;2024-03-02T03:42:50;7.50;96.80
4755;DHT22;2391;47.212;7.542;2024-03-02T03:45:16;7.60;96.90
4755;DHT22;2391;47.212;7.542;2024-03-02T03:47:42;7.50;97.00
4755;DHT22;2391;47.212;7.542;2024-03-02T03:50:10;7.40;97.20
4755;DHT22;2391;47.212;7.542;2024-03-02T03:52:36;7.30;97.20
4755;DHT22;2391;47.212;7.542;2024-03-02T03:55:01;7.20;97.40
4755;DHT22;2391;47.212;7.542;2024-03-02T03:57:27;7.00;97.40
4755;DHT22;2391;47.212;7.542;2024-03-02T03:59:55;6.90;97.50
4755;DHT22;2391;47.212;7.542;2024-03-02T04:02:21;6.90;97.70
4755;DHT22;2391;47.212;7.542;2024-03-02T04:04:46;6.90;97.90
4755;DHT22;2391;47.212;7.542;2024-03-02T04:07:12;6.80;98.00
4755;DHT22;2391;47.212;7.542;2024-03-02T04:09:38;6.80;98.10
4755;DHT22;2391;47.212;7.542;2024-03-02T04:12:04;6.80;98.30
4755;DHT22;2391;47.212;7.542;2024-03-02T04:14:30;6.90;98.20
4755;DHT22;2391;47.212;7.542;2024-03-02T04:16:55;7.00;98.10
4755;DHT22;2391;47.212;7.542;2024-03-02T04:19:21;7.10;98.20
4755;DHT22;2391;47.212;7.542;2024-03-02T04:21:47;7.00;98.20
4755;DHT22;2391;47.212;7.542;2024-03-02T04:24:13;7.00;98.20
4755;DHT22;2391;47.212;7.542;2024-03-02T04:26:38;6.90;98.20
4755;DHT22;2391;47.212;7.542;2024-03-02T04:29:04;7.00;98.20
4755;DHT22;2391;47.212;7.542;2024-03-02T04:31:30;7.00;98.20
4755;DHT22;2391;47.212;7.542;2024-03-02T04:34:00;7.00;98.20
4755;DHT22;2391;47.212;7.542;2024-03-02T04:36:23;7.00;98.10
4755;DHT22;2391;47.212;7.542;2024-03-02T04:38:49;7.00;98.10
4755;DHT22;2391;47.212;7.542;2024-03-02T04:41:15;7.10;98.00
4755;DHT22;2391;47.212;7.542;2024-03-02T04:43:41;7.10;97.90
4755;DHT22;2391;47.212;7.542;2024-03-02T04:46:07;7.10;97.90
4755;DHT22;2391;47.212;7.542;2024-03-02T04:48:33;7.00;97.90
4755;DHT22;2391;47.212;7.542;2024-03-02T04:50:59;7.00;97.90
4755;DHT22;2391;47.212;7.542;2024-03-02T04:53:25;7.00;97.90
4755;DHT22;2391;47.212;7.542;2024-03-02T04:55:51;7.00;97.90
4755;DHT22;2391;47.212;7.542;2024-03-02T04:58:35;7.00;97.80
4755;DHT22;2391;47.212;7.542;2024-03-02T05:01:01;7.00;97.70
4755;DHT22;2391;47.212;7.542;2024-03-02T05:03:27;7.00;97.60
4755;DHT22;2391;47.212;7.542;2024-03-02T05:05:53;7.10;97.90
4755;DHT22;2391;47.212;7.542;2024-03-02T05:08:18;7.10;97.70
4755;DHT22;2391;47.212;7.542;2024-03-02T05:10:44;7.10;97.70
4755;DHT22;2391;47.212;7.542;2024-03-02T05:13:10;7.10;97.50
4755;DHT22;2391;47.212;7.542;2024-03-02T05:15:36;7.10;97.40
4755;DHT22;2391;47.212;7.542;2024-03-02T05:18:02;7.20;97.40
4755;DHT22;2391;47.212;7.542;2024-03-02T05:20:30;7.20;97.50
4755;DHT22;2391;47.212;7.542;2024-03-02T05:22:55;7.10;97.50
4755;DHT22;2391;47.212;7.542;2024-03-02T05:25:21;7.00;97.50
4755;DHT22;2391;47.212;7.542;2024-03-02T05:27:47;6.90;97.50
4755;DHT22;2391;47.212;7.542;2024-03-02T05:30:13;6.80;97.70
4755;DHT22;2391;47.212;7.542;2024-03-02T05:32:39;6.80;97.80
4755;DHT22;2391;47.212;7.542;2024-03-02T05:35:06;6.80;97.70
4755;DHT22;2391;47.212;7.542;2024-03-02T05:37:31;6.80;97.60
4755;DHT22;2391;47.212;7.542;2024-03-02T05:39:57;6.90;97.40
4755;DHT22;2391;47.212;7.542;2024-03-02T05:42:24;6.90;97.20
4755;DHT22;2391;47.212;7.542;2024-03-02T05:44:50;6.90;97.10
4755;DHT22;2391;47.212;7.542;2024-03-02T05:47:16;7.00;97.10
4755;DHT22;2391;47.212;7.542;2024-03-02T05:49:42;7.00;96.90
4755;DHT22;2391;47.212;7.542;2024-03-02T05:52:08;7.00;96.80
4755;DHT22;2391;47.212;7.542;2024-03-02T05:54:34;7.00;96.80
4755;DHT22;2391;47.212;7.542;2024-03-02T05:57:00;7.10;96.80
4755;DHT22;2391;47.212;7.542;2024-03-02T05:59:27;7.10;96.80
4755;DHT22;2391;47.212;7.542;2024-03-02T06:01:53;7.10;96.70
4755;DHT22;2391;47.212;7.542;2024-03-02T06:04:20;7.00;96.50
4755;DHT22;2391;47.212;7.542;2024-03-02T06:06:45;7.00;96.50
4755;DHT22;2391;47.212;7.542;2024-03-02T06:09:11;6.90;96.30
4755;DHT22;2391;47.212;7.542;2024-03-02T06:11:41;6.60;96.40
4755;DHT22;2391;47.212;7.542;2024-03-02T06:14:08;6.30;97.00
4755;DHT22;2391;47.212;7.542;2024-03-02T06:16:34;6.30;97.10
4755;DHT22;2391;47.212;7.542;2024-03-02T06:19:01;6.30;97.10
4755;DHT22;2391;47.212;7.542;2024-03-02T06:21:27;6.30;97.10
4755;DHT22;2391;47.212;7.542;2024-03-02T06:23:53;6.30;97.00
4755;DHT22;2391;47.212;7.542;2024-03-02T06:26:20;6.40;97.00
4755;DHT22;2391;47.212;7.542;2024-03-02T06:28:46;6.30;96.90
4755;DHT22;2391;47.212;7.542;2024-03-02T06:31:12;6.40;97.00
4755;DHT22;2391;47.212;7.542;2024-03-02T06:33:38;6.40;97.10
4755;DHT22;2391;47.212;7.542;2024-03-02T06:36:04;6.40;97.00
4755;DHT22;2391;47.212;7.542;2024-03-02T06:38:32;6.40;97.00
4755;DHT22;2391;47.212;7.542;2024-03-02T06:40:58;6.50;97.20
4755;DHT22;2391;47.212;7.542;2024-03-02T06:43:24;6.40;97.20
4755;DHT22;2391;47.212;7.542;2024-03-02T06:45:51;6.40;97.10
4755;DHT22;2391;47.212;7.542;2024-03-02T06:48:17;6.40;97.20
4755;DHT22;2391;47.212;7.542;2024-03-02T06:50:47;6.40;97.30
4755;DHT22;2391;47.212;7.542;2024-03-02T06:53:13;6.30;97.30
4755;DHT22;2391;47.212;7.542;2024-03-02T06:55:39;6.40;97.50
4755;DHT22;2391;47.212;7.542;2024-03-02T06:58:05;6.40;97.50
4755;DHT22;2391;47.212;7.542;2024-03-02T07:00:31;6.50;97.50
4755;DHT22;2391;47.212;7.542;2024-03-02T07:02:57;6.50;97.60
4755;DHT22;2391;47.212;7.542;2024-03-02T07:05:24;6.60;97.70
4755;DHT22;2391;47.212;7.542;2024-03-02T07:07:50;6.60;97.50
4755;DHT22;2391;47.212;7.542;2024-03-02T07:10:15;6.60;97.40
4755;DHT22;2391;47.212;7.542;2024-03-02T07:12:41;6.60;97.40
4755;DHT22;2391;47.212;7.542;2024-03-02T07:15:08;6.60;97.20
4755;DHT22;2391;47.212;7.542;2024-03-02T07:17:35;6.60;97.20
4755;DHT22;2391;47.212;7.542;2024-03-02T07:20:03;6.50;97.10
4755;DHT22;2391;47.212;7.542;2024-03-02T07:22:29;6.40;97.60
4755;DHT22;2391;47.212;7.542;2024-03-02T07:24:55;6.40;97.80
4755;DHT22;2391;47.212;7.542;2024-03-02T07:27:21;6.40;97.80
4755;DHT22;2391;47.212;7.542;2024-03-02T07:29:47;6.30;97.80
4755;DHT22;2391;47.212;7.542;2024-03-02T07:32:13;6.20;98.10
4755;DHT22;2391;47.212;7.542;2024-03-02T07:34:39;6.20;98.30
4755;DHT22;2391;47.212;7.542;2024-03-02T07:37:05;6.30;98.70
4755;DHT22;2391;47.212;7.542;2024-03-02T07:39:31;6.40;98.70
4755;DHT22;2391;47.212;7.542;2024-03-02T07:41:57;6.50;98.50
4755;DHT22;2391;47.212;7.542;2024-03-02T07:44:23;6.60;98.30
4755;DHT22;2391;47.212;7.542;2024-03-02T07:46:49;6.60;98.40
4755;DHT22;2391;47.212;7.542;2024-03-02T07:49:16;6.60;98.50
4755;DHT22;2391;47.212;7.542;2024-03-02T07:51:42;6.70;98.40
4755;DHT22;2391;47.212;7.542;2024-03-02T07:54:08;6.80;98.40
4755;DHT22;2391;47.212;7.542;2024-03-02T07:56:35;6.80;98.50
4755;DHT22;2391;47.212;7.542;2024-03-02T07:59:01;6.90;98.30
4755;DHT22;2391;47.212;7.542;2024-03-02T08:01:28;6.80;98.40
4755;DHT22;2391;47.212;7.542;2024-03-02T08:03:57;6.80;98.20
4755;DHT22;2391;47.212;7.542;2024-03-02T08:06:27;6.80;98.50
4755;DHT22;2391;47.212;7.542;2024-03-02T08:08:54;6.80;98.30
4755;DHT22;2391;47.212;7.542;2024-03-02T08:11:21;6.80;98.50
4755;DHT22;2391;47.212;7.542;2024-03-02T08:13:47;6.70;99.00
4755;DHT22;2391;47.212;7.542;2024-03-02T08:16:14;6.70;98.90
4755;DHT22;2391;47.212;7.542;2024-03-02T08:18:41;6.70;99.00
4755;DHT22;2391;47.212;7.542;2024-03-02T08:21:07;6.70;99.10
4755;DHT22;2391;47.212;7.542;2024-03-02T08:23:34;6.80;99.00
4755;DHT22;2391;47.212;7.542;2024-03-02T08:26:00;6.80;99.00
4755;DHT22;2391;47.212;7.542;2024-03-02T08:28:27;6.80;98.90
4755;DHT22;2391;47.212;7.542;2024-03-02T08:30:53;6.70;98.80
4755;DHT22;2391;47.212;7.542;2024-03-02T08:33:18;6.60;99.20
4755;DHT22;2391;47.212;7.542;2024-03-02T08:35:44;6.50;99.80
4755;DHT22;2391;47.212;7.542;2024-03-02T08:38:10;6.50;99.90
4755;DHT22;2391;47.212;7.542;2024-03-02T08:40:36;6.40;99.90
4755;DHT22;2391;47.212;7.542;2024-03-02T08:43:02;6.40;99.90
4755;DHT22;2391;47.212;7.542;2024-03-02T08:45:28;6.40;99.90
4755;DHT22;2391;47.212;7.542;2024-03-02T08:47:54;6.40;99.90
4755;DHT22;2391;47.212;7.542;2024-03-02T08:50:19;6.50;99.90
4755;DHT22;2391;47.212;7.542;2024-03-02T08:52:45;6.60;99.90
4755;DHT22;2391;47.212;7.542;2024-03-02T08:55:11;6.70;99.90
4755;DHT22;2391;47.212;7.542;2024-03-02T08:57:37;6.80;99.90
4755;DHT22;2391;47.212;7.542;2024-03-02T09:00:03;6.90;99.90
4755;DHT22;2391;47.212;7.542;2024-03-02T09:02:31;7.00;99.90
4755;DHT22;2391;47.212;7.542;2024-03-02T09:04:57;7.30;99.90
4755;DHT22;2391;47.212;7.542;2024-03-02T09:07:23;7.40;99.90
4755;DHT22;2391;47.212;7.542;2024-03-02T09:09:49;7.60;99.90
4755;DHT22;2391;47.212;7.542;2024-03-02T09:12:15;7.60;99.40
4755;DHT22;2391;47.212;7.542;2024-03-02T09:14:41;7.50;99.60
4755;DHT22;2391;47.212;7.542;2024-03-02T09:17:07;7.50;99.90
4755;DHT22;2391;47.212;7.542;2024-03-02T09:19:37;7.60;99.90
4755;DHT22;2391;47.212;7.542;2024-03-02T09:22:04;7.70;99.90
4755;DHT22;2391;47.212;7.542;2024-03-02T09:24:33;7.80;99.90
4755;DHT22;2391;47.212;7.542;2024-03-02T09:26:59;7.80;99.90
4755;DHT22;2391;47.212;7.542;2024-03-02T09:29:25;7.90;99.90
4755;DHT22;2391;47.212;7.542;2024-03-02T09:31:51;8.10;99.90
4755;DHT22;2391;47.212;7.542;2024-03-02T09:34:17;8.20;99.90
4755;DHT22;2391;47.212;7.542;2024-03-02T09:36:43;8.30;99.90
4755;DHT22;2391;47.212;7.542;2024-03-02T09:39:09;8.30;99.80
4755;DHT22;2391;47.212;7.542;2024-03-02T09:41:36;8.50;99.90
4755;DHT22;2391;47.212;7.542;2024-03-02T09:44:03;8.50;99.90
4755;DHT22;2391;47.212;7.542;2024-03-02T09:46:30;8.60;99.90
4755;DHT22;2391;47.212;7.542;2024-03-02T09:48:59;8.70;99.80
4755;DHT22;2391;47.212;7.542;2024-03-02T09:51:25;8.70;99.20
4755;DHT22;2391;47.212;7.542;2024-03-02T09:53:51;8.70;99.40
4755;DHT22;2391;47.212;7.542;2024-03-02T09:56:17;8.60;99.70
4755;DHT22;2391;47.212;7.542;2024-03-02T09:58:44;8.70;99.70
4755;DHT22;2391;47.212;7.542;2024-03-02T10:01:10;8.70;99.90
4755;DHT22;2391;47.212;7.542;2024-03-02T10:03:39;8.70;99.60
4755;DHT22;2391;47.212;7.542;2024-03-02T10:06:22;8.80;99.70
4755;DHT22;2391;47.212;7.542;2024-03-02T10:08:49;8.90;99.90
4755;DHT22;2391;47.212;7.542;2024-03-02T10:11:33;9.00;99.80
4755;DHT22;2391;47.212;7.542;2024-03-02T10:14:08;9.10;99.90
4755;DHT22;2391;47.212;7.542;2024-03-02T10:16:43;9.20;99.80
4755;DHT22;2391;47.212;7.542;2024-03-02T10:21:48;9.40;99.40
4755;DHT22;2391;47.212;7.542;2024-03-02T10:24:11;9.40;99.50
4755;DHT22;2391;47.212;7.542;2024-03-02T10:26:38;9.40;99.20
4755;DHT22;2391;47.212;7.542;2024-03-02T10:29:04;9.50;99.00
4755;DHT22;2391;47.212;7.542;2024-03-02T10:31:30;9.60;98.80
4755;DHT22;2391;47.212;7.542;2024-03-02T10:33:57;9.60;99.00
4755;DHT22;2391;47.212;7.542;2024-03-02T10:36:23;9.50;98.70
4755;DHT22;2391;47.212;7.542;2024-03-02T10:38:53;9.60;98.70
4755;DHT22;2391;47.212;7.542;2024-03-02T10:41:24;9.70;98.50
4755;DHT22;2391;47.212;7.542;2024-03-02T10:43:53;9.80;98.60
4755;DHT22;2391;47.212;7.542;2024-03-02T10:46:20;9.80;98.40
4755;DHT22;2391;47.212;7.542;2024-03-02T10:48:48;9.90;98.00
4755;DHT22;2391;47.212;7.542;2024-03-02T10:51:15;10.00;97.10
4755;DHT22;2391;47.212;7.542;2024-03-02T10:53:41;10.00;97.10
4755;DHT22;2391;47.212;7.542;2024-03-02T10:56:07;10.00;96.80
4755;DHT22;2391;47.212;7.542;2024-03-02T10:58:36;10.10;96.80
4755;DHT22;2391;47.212;7.542;2024-03-02T11:01:03;10.10;96.50
4755;DHT22;2391;47.212;7.542;2024-03-02T11:03:32;10.20;96.60
4755;DHT22;2391;47.212;7.542;2024-03-02T11:05:59;10.30;95.60
4755;DHT22;2391;47.212;7.542;2024-03-02T11:08:28;10.30;95.80
4755;DHT22;2391;47.212;7.542;2024-03-02T11:11:00;10.40;95.20
4755;DHT22;2391;47.212;7.542;2024-03-02T11:13:32;10.50;95.70
4755;DHT22;2391;47.212;7.542;2024-03-02T11:16:04;10.60;95.50
4755;DHT22;2391;47.212;7.542;2024-03-02T11:18:32;10.70;95.00
4755;DHT22;2391;47.212;7.542;2024-03-02T11:20:59;10.90;94.50
4755;DHT22;2391;47.212;7.542;2024-03-02T11:23:33;11.00;94.40
4755;DHT22;2391;47.212;7.542;2024-03-02T11:26:19;11.00;94.60
4755;DHT22;2391;47.212;7.542;2024-03-02T11:28:46;11.00;94.30
4755;DHT22;2391;47.212;7.542;2024-03-02T11:31:12;11.10;94.30
4755;DHT22;2391;47.212;7.542;2024-03-02T11:33:38;11.20;94.10
4755;DHT22;2391;47.212;7.542;2024-03-02T11:36:10;11.30;93.50
4755;DHT22;2391;47.212;7.542;2024-03-02T11:38:35;11.30;93.60
4755;DHT22;2391;47.212;7.542;2024-03-02T11:41:02;11.30;93.20
4755;DHT22;2391;47.212;7.542;2024-03-02T11:43:29;11.40;93.40
4755;DHT22;2391;47.212;7.542;2024-03-02T11:45:59;11.50;92.70
4755;DHT22;2391;47.212;7.542;2024-03-02T11:48:26;11.50;92.70
4755;DHT22;2391;47.212;7.542;2024-03-02T11:50:52;11.70;93.10
4755;DHT22;2391;47.212;7.542;2024-03-02T11:53:20;11.80;93.00
4755;DHT22;2391;47.212;7.542;2024-03-02T11:55:47;11.90;93.10
4755;DHT22;2391;47.212;7.542;2024-03-02T11:58:17;12.00;93.10
4755;DHT22;2391;47.212;7.542;2024-03-02T12:00:43;12.10;92.90
4755;DHT22;2391;47.212;7.542;2024-03-02T12:03:12;12.20;92.50
4755;DHT22;2391;47.212;7.542;2024-03-02T12:05:39;12.30;92.50
4755;DHT22;2391;47.212;7.542;2024-03-02T12:08:06;12.30;92.00
4755;DHT22;2391;47.212;7.542;2024-03-02T12:10:34;12.30;91.30
4755;DHT22;2391;47.212;7.542;2024-03-02T12:13:02;12.30;91.30
4755;DHT22;2391;47.212;7.542;2024-03-02T12:15:33;12.20;91.20
4755;DHT22;2391;47.212;7.542;2024-03-02T12:18:00;12.20;91.70
4755;DHT22;2391;47.212;7.542;2024-03-02T12:20:29;12.20;91.50
4755;DHT22;2391;47.212;7.542;2024-03-02T12:22:57;12.20;91.80
4755;DHT22;2391;47.212;7.542;2024-03-02T12:25:24;12.20;91.30
4755;DHT22;2391;47.212;7.542;2024-03-02T12:27:53;12.30;91.40
4755;DHT22;2391;47.212;7.542;2024-03-02T12:30:20;12.40;91.40
4755;DHT22;2391;47.212;7.542;2024-03-02T12:32:47;12.50;91.70
4755;DHT22;2391;47.212;7.542;2024-03-02T12:35:14;12.50;90.50
4755;DHT22;2391;47.212;7.542;2024-03-02T12:37:48;12.50;91.00
4755;DHT22;2391;47.212;7.542;2024-03-02T12:40:16;12.50;91.10
4755;DHT22;2391;47.212;7.542;2024-03-02T12:42:46;12.50;91.20
4755;DHT22;2391;47.212;7.542;2024-03-02T12:45:13;12.50;90.90
4755;DHT22;2391;47.212;7.542;2024-03-02T12:47:40;12.60;90.80
4755;DHT22;2391;47.212;7.542;2024-03-02T12:50:07;12.60;91.00
4755;DHT22;2391;47.212;7.542;2024-03-02T12:52:34;12.60;90.50
4755;DHT22;2391;47.212;7.542;2024-03-02T12:55:01;12.50;90.90
4755;DHT22;2391;47.212;7.542;2024-03-02T12:57:29;12.50;91.30
4755;DHT22;2391;47.212;7.542;2024-03-02T13:00:00;12.50;90.90
4755;DHT22;2391;47.212;7.542;2024-03-02T13:02:30;12.60;91.30
4755;DHT22;2391;47.212;7.542;2024-03-02T13:04:58;12.60;90.60
4755;DHT22;2391;47.212;7.542;2024-03-02T13:07:25;12.60;90.60
4755;DHT22;2391;47.212;7.542;2024-03-02T13:09:52;12.70;90.10
4755;DHT22;2391;47.212;7.542;2024-03-02T13:12:19;12.70;90.30
4755;DHT22;2391;47.212;7.542;2024-03-02T13:14:53;12.80;90.20
4755;DHT22;2391;47.212;7.542;2024-03-02T13:17:20;12.80;89.20
4755;DHT22;2391;47.212;7.542;2024-03-02T13:19:57;12.70;88.80
4755;DHT22;2391;47.212;7.542;2024-03-02T13:22:24;12.50;89.20
4755;DHT22;2391;47.212;7.542;2024-03-02T13:24:51;12.40;89.50
4755;DHT22;2391;47.212;7.542;2024-03-02T13:27:17;12.40;89.10
4755;DHT22;2391;47.212;7.542;2024-03-02T13:29:49;12.40;88.60
4755;DHT22;2391;47.212;7.542;2024-03-02T13:32:16;12.50;89.00
4755;DHT22;2391;47.212;7.542;2024-03-02T13:34:42;12.50;88.70
4755;DHT22;2391;47.212;7.542;2024-03-02T13:37:08;12.50;88.90
4755;DHT22;2391;47.212;7.542;2024-03-02T13:39:34;12.50;89.10
4755;DHT22;2391;47.212;7.542;2024-03-02T13:42:03;12.50;89.40
4755;DHT22;2391;47.212;7.542;2024-03-02T13:44:31;12.50;90.10
4755;DHT22;2391;47.212;7.542;2024-03-02T13:46:57;12.60;90.00
4755;DHT22;2391;47.212;7.542;2024-03-02T13:49:24;12.50;90.00
4755;DHT22;2391;47.212;7.542;2024-03-02T13:51:49;12.50;90.30
4755;DHT22;2391;47.212;7.542;2024-03-02T13:54:15;12.50;90.60
4755;DHT22;2391;47.212;7.542;2024-03-02T13:56:41;12.60;90.90
4755;DHT22;2391;47.212;7.542;2024-03-02T13:59:08;12.60;91.20
4755;DHT22;2391;47.212;7.542;2024-03-02T14:01:34;12.60;91.80
4755;DHT22;2391;47.212;7.542;2024-03-02T14:04:00;12.50;92.10
4755;DHT22;2391;47.212;7.542;2024-03-02T14:06:26;12.40;92.40
4755;DHT22;2391;47.212;7.542;2024-03-02T14:08:53;12.40;92.60
4755;DHT22;2391;47.212;7.542;2024-03-02T14:11:18;12.30;92.70
4755;DHT22;2391;47.212;7.542;2024-03-02T14:13:45;12.30;92.70
4755;DHT22;2391;47.212;7.542;2024-03-02T14:16:15;12.30;92.80
4755;DHT22;2391;47.212;7.542;2024-03-02T14:18:41;12.30;92.70
4755;DHT22;2391;47.212;7.542;2024-03-02T14:21:08;12.30;93.00
4755;DHT22;2391;47.212;7.542;2024-03-02T14:23:33;12.30;93.10
4755;DHT22;2391;47.212;7.542;2024-03-02T14:25:59;12.20;93.40
4755;DHT22;2391;47.212;7.542;2024-03-02T14:28:25;12.20;93.40
4755;DHT22;2391;47.212;7.542;2024-03-02T14:30:51;12.30;93.60
4755;DHT22;2391;47.212;7.542;2024-03-02T14:33:17;12.30;93.30
4755;DHT22;2391;47.212;7.542;2024-03-02T14:35:44;12.30;93.30
4755;DHT22;2391;47.212;7.542;2024-03-02T14:38:12;12.40;93.50
4755;DHT22;2391;47.212;7.542;2024-03-02T14:40:38;12.40;93.30
4755;DHT22;2391;47.212;7.542;2024-03-02T14:43:04;12.50;93.30
4755;DHT22;2391;47.212;7.542;2024-03-02T14:45:30;12.50;93.40
4755;DHT22;2391;47.212;7.542;2024-03-02T14:47:56;12.50;93.50
4755;DHT22;2391;47.212;7.542;2024-03-02T14:50:24;12.50;93.60
4755;DHT22;2391;47.212;7.542;2024-03-02T14:52:50;12.50;93.50
4755;DHT22;2391;47.212;7.542;2024-03-02T14:55:16;12.50;93.30
4755;DHT22;2391;47.212;7.542;2024-03-02T14:57:42;12.60;93.50
4755;DHT22;2391;47.212;7.542;2024-03-02T15:00:09;12.60;93.40
4755;DHT22;2391;47.212;7.542;2024-03-02T15:02:38;12.70;93.10
4755;DHT22;2391;47.212;7.542;2024-03-02T15:05:04;12.70;93.00
4755;DHT22;2391;47.212;7.542;2024-03-02T15:07:33;12.70;92.80
4755;DHT22;2391;47.212;7.542;2024-03-02T15:09:59;12.70;92.80
4755;DHT22;2391;47.212;7.542;2024-03-02T15:12:25;12.60;92.70
4755;DHT22;2391;47.212;7.542;2024-03-02T15:14:51;12.60;92.80
4755;DHT22;2391;47.212;7.542;2024-03-02T15:17:17;12.50;92.80
4755;DHT22;2391;47.212;7.542;2024-03-02T15:19:44;12.50;92.80
4755;DHT22;2391;47.212;7.542;2024-03-02T15:22:10;12.40;92.70
4755;DHT22;2391;47.212;7.542;2024-03-02T15:24:37;12.50;92.80
4755;DHT22;2391;47.212;7.542;2024-03-02T15:27:03;12.50;92.80
4755;DHT22;2391;47.212;7.542;2024-03-02T15:29:32;12.50;92.90
4755;DHT22;2391;47.212;7.542;2024-03-02T15:31:58;12.50;92.90
4755;DHT22;2391;47.212;7.542;2024-03-02T15:34:25;12.50;92.90
4755;DHT22;2391;47.212;7.542;2024-03-02T15:36:51;12.50;92.80
4755;DHT22;2391;47.212;7.542;2024-03-02T15:39:16;12.60;92.90
4755;DHT22;2391;47.212;7.542;2024-03-02T15:41:44;12.60;92.80
4755;DHT22;2391;47.212;7.542;2024-03-02T15:44:10;12.60;92.70
4755;DHT22;2391;47.212;7.542;2024-03-02T15:46:37;12.70;92.40
4755;DHT22;2391;47.212;7.542;2024-03-02T15:49:02;12.80;92.40
4755;DHT22;2391;47.212;7.542;2024-03-02T15:51:30;12.80;92.30
4755;DHT22;2391;47.212;7.542;2024-03-02T15:53:56;12.90;92.20
4755;DHT22;2391;47.212;7.542;2024-03-02T15:56:22;12.80;92.20
4755;DHT22;2391;47.212;7.542;2024-03-02T15:58:48;12.90;92.30
4755;DHT22;2391;47.212;7.542;2024-03-02T16:01:14;12.90;92.20
4755;DHT22;2391;47.212;7.542;2024-03-02T16:03:39;12.90;91.90
4755;DHT22;2391;47.212;7.542;2024-03-02T16:06:05;12.80;92.00
4755;DHT22;2391;47.212;7.542;2024-03-02T16:08:31;12.70;92.10
4755;DHT22;2391;47.212;7.542;2024-03-02T16:10:57;12.70;92.00